createdAt,value
2022-08-17T00:00:43.957Z,100252.69
2022-08-17T00:03:19.682Z,100254.38
2022-08-17T00:06:12.337Z,100254.30
2022-08-17T00:09:01.741Z,100259.43
2022-08-17T00:11:38.707Z,100262.06
2022-08-17T00:14:19.975Z,100261.77
2022-08-17T00:16:57.247Z,100261.71
2022-08-17T00:19:27.038Z,100258.17
2022-08-17T00:22:33.811Z,100258.33
2022-08-17T00:24:49.226Z,100255.52
2022-08-17T00:27:18.733Z,100253.14
2022-08-17T00:29:47.348Z,100252.61
2022-08-17T00:33:14.482Z,100250.75
2022-08-17T00:35:08.250Z,100248.41
2022-08-17T00:37:36.905Z,100248.82
2022-08-17T00:40:07.220Z,100248.13
2022-08-17T00:42:36.368Z,100254.55
2022-08-17T00:45:08.407Z,100260.65
2022-08-17T00:47:37.071Z,100264.45
2022-08-17T00:50:09.776Z,100263.79
2022-08-17T00:52:48.153Z,100262.20
2022-08-17T00:55:17.860Z,100264.59
2022-08-17T00:57:55.216Z,100263.38
2022-08-17T01:00:40.683Z,100265.77
2022-08-17T01:03:19.776Z,100269.38
2022-08-17T01:05:52.137Z,100268.45
2022-08-17T01:08:26.297Z,100267.73
2022-08-17T01:11:01.858Z,100260.60
2022-08-17T01:13:43.177Z,100256.67
2022-08-17T01:16:22.323Z,100254.67
2022-08-17T01:18:55.649Z,100255.88
2022-08-17T01:21:52.158Z,100265.73
2022-08-17T01:24:21.365Z,100269.05
2022-08-17T01:26:50.594Z,100269.73
2022-08-17T01:29:22.523Z,100266.70
2022-08-17T01:31:59.080Z,100263.92
2022-08-17T01:34:42.429Z,100260.31
2022-08-17T01:37:15.117Z,100260.63
2022-08-17T01:39:56.365Z,100261.62
2022-08-17T01:42:36.853Z,100259.47
2022-08-17T01:45:13.023Z,100262.05
2022-08-17T01:47:42.321Z,100258.23
2022-08-17T01:50:20.020Z,100255.80
2022-08-17T01:52:54.373Z,100259.21
2022-08-17T01:55:32.344Z,100259.55
2022-08-17T01:58:02.144Z,100254.13
2022-08-17T02:01:00.279Z,100245.58
2022-08-17T02:03:23.115Z,100246.77
2022-08-17T02:05:53.690Z,100249.28
2022-08-17T02:08:36.984Z,100243.90
2022-08-17T02:11:16.935Z,100242.86
2022-08-17T02:13:48.645Z,100237.25
2022-08-17T02:16:26.501Z,100235.39
2022-08-17T02:19:14.382Z,100236.85
2022-08-17T02:21:46.072Z,100232.38
2022-08-17T02:24:59.842Z,100232.40
2022-08-17T02:27:18.294Z,100233.29
2022-08-17T02:29:47.013Z,100233.11
2022-08-17T02:32:28.107Z,100233.52
2022-08-17T02:34:58.981Z,100240.95
2022-08-17T02:37:32.091Z,100241.59
2022-08-17T02:40:00.947Z,100245.93
2022-08-17T02:42:41.091Z,100248.88
2022-08-17T02:45:18.149Z,100251.02
2022-08-17T02:47:47.884Z,100256.38
2022-08-17T02:50:20.809Z,100257.15
2022-08-17T02:52:53.253Z,100257.80
2022-08-17T02:55:35.546Z,100260.84
2022-08-17T02:58:05.283Z,100265.70
2022-08-17T03:00:41.273Z,100264.59
2022-08-17T03:03:13.898Z,100270.09
2022-08-17T03:05:43.214Z,100274.28
2022-08-17T03:08:13.383Z,100273.15
2022-08-17T03:10:44.415Z,100279.99
2022-08-17T03:13:14.941Z,100280.76
2022-08-17T03:15:45.663Z,100277.39
2022-08-17T03:18:24.190Z,100279.91
2022-08-17T03:21:01.637Z,100275.20
2022-08-17T03:23:32.571Z,100282.25
2022-08-17T03:26:01.575Z,100285.05
2022-08-17T03:28:31.062Z,100286.12
2022-08-17T03:30:59.788Z,100290.30
2022-08-17T03:33:28.373Z,100290.83
2022-08-17T03:35:57.431Z,100289.13
2022-08-17T03:38:26.710Z,100289.80
2022-08-17T03:40:59.478Z,100288.00
2022-08-17T03:43:31.756Z,100286.90
2022-08-17T03:46:34.190Z,100285.75
2022-08-17T03:49:25.940Z,100286.16
2022-08-17T03:52:15.052Z,100291.14
2022-08-17T03:55:03.444Z,100290.20
2022-08-17T03:57:32.562Z,100287.50
2022-08-17T04:00:01.374Z,100292.66
2022-08-17T04:02:42.987Z,100289.34
2022-08-17T04:05:11.623Z,100292.24
2022-08-17T04:07:40.373Z,100295.49
2022-08-17T04:10:09.267Z,100294.39
2022-08-17T04:12:53.143Z,100292.65
2022-08-17T04:15:23.260Z,100288.31
2022-08-17T04:17:53.266Z,100291.13
2022-08-17T04:20:24.526Z,100292.88
2022-08-17T04:23:10.018Z,100290.12
2022-08-17T04:25:43.744Z,100289.17
2022-08-17T04:28:16.163Z,100290.11
2022-08-17T04:30:46.916Z,100286.27
2022-08-17T04:33:25.846Z,100288.52
2022-08-17T04:35:59.383Z,100286.39
2022-08-17T04:38:35.664Z,100289.95
2022-08-17T04:41:24.085Z,100288.03
2022-08-17T04:43:58.694Z,100281.77
2022-08-17T04:46:36.358Z,100284.54
2022-08-17T04:49:11.716Z,100289.54
2022-08-17T04:51:54.705Z,100288.16
2022-08-17T04:54:25.578Z,100288.86
2022-08-17T04:56:54.287Z,100290.52
2022-08-17T04:59:23.452Z,100291.17
2022-08-17T05:01:52.811Z,100293.08
2022-08-17T05:04:33.802Z,100296.95
2022-08-17T05:07:04.943Z,100296.38
2022-08-17T05:09:33.697Z,100300.69
2022-08-17T05:12:03.349Z,100301.29
2022-08-17T05:14:33.650Z,100303.83
2022-08-17T05:17:07.234Z,100308.95
2022-08-17T05:19:38.277Z,100310.38
2022-08-17T05:22:07.056Z,100305.52
2022-08-17T05:24:40.731Z,100310.02
2022-08-17T05:27:15.897Z,100312.05
2022-08-17T05:29:48.108Z,100310.98
2022-08-17T05:32:39.480Z,100317.70
2022-08-17T05:35:06.811Z,100312.70
2022-08-17T05:37:35.506Z,100315.12
2022-08-17T05:40:05.250Z,100320.16
2022-08-17T05:42:33.964Z,100317.75
2022-08-17T05:45:02.572Z,100313.17
2022-08-17T05:47:31.583Z,100316.45
2022-08-17T05:50:02.147Z,100318.86
2022-08-17T05:53:18.590Z,100317.03
2022-08-17T05:56:29.354Z,100324.80
2022-08-17T05:59:17.308Z,100323.04
2022-08-17T06:02:05.729Z,100324.36
2022-08-17T06:05:18.922Z,100329.29
2022-08-17T06:08:02.878Z,100322.67
2022-08-17T06:10:49.559Z,100320.61
2022-08-17T06:13:42.184Z,100317.77
2022-08-17T06:16:33.152Z,100315.77
2022-08-17T06:19:23.615Z,100313.48
2022-08-17T06:21:55.916Z,100314.73
2022-08-17T06:24:44.216Z,100314.14
2022-08-17T06:27:18.975Z,100315.27
2022-08-17T06:30:01.304Z,100320.14
2022-08-17T06:32:30.158Z,100317.48
2022-08-17T06:35:01.628Z,100315.23
2022-08-17T06:38:36.891Z,100316.58
2022-08-17T06:41:54.950Z,100316.21
2022-08-17T06:44:50.057Z,100313.76
2022-08-17T06:48:13.383Z,100306.70
2022-08-17T06:50:53.673Z,100306.79
2022-08-17T06:53:29.553Z,100306.79
2022-08-17T06:56:25.805Z,100308.13
2022-08-17T07:01:23.219Z,100309.45
2022-08-17T07:04:19.375Z,100315.09
2022-08-17T07:07:27.200Z,100315.76
2022-08-17T07:10:00.428Z,100312.99
2022-08-17T07:12:38.669Z,100308.56
2022-08-17T07:15:26.380Z,100309.02
2022-08-17T07:17:55.962Z,100309.98
2022-08-17T07:20:25.460Z,100315.23
2022-08-17T07:23:34.793Z,100315.59
2022-08-17T07:26:09.549Z,100318.69
2022-08-17T07:28:40.796Z,100315.55
2022-08-17T07:31:09.666Z,100314.87
2022-08-17T07:33:39.653Z,100313.00
2022-08-17T07:36:30.066Z,100317.78
2022-08-17T07:38:59.105Z,100322.71
2022-08-17T07:41:53.334Z,100326.45
2022-08-17T07:44:21.066Z,100327.65
2022-08-17T07:47:11.869Z,100332.55
2022-08-17T07:49:46.573Z,100336.35
2022-08-17T07:52:51.167Z,100338.81
2022-08-17T07:55:35.637Z,100336.98
2022-08-17T07:58:04.292Z,100336.66
2022-08-17T08:00:34.025Z,100342.38
2022-08-17T08:03:16.836Z,100342.54
2022-08-17T08:05:56.568Z,100338.45
2022-08-17T08:08:37.903Z,100343.09
2022-08-17T08:11:18.098Z,100341.28
2022-08-17T08:13:46.904Z,100337.84
2022-08-17T08:16:26.259Z,100339.05
2022-08-17T08:19:02.147Z,100336.09
2022-08-17T08:21:52.284Z,100335.80
2022-08-17T08:24:32.929Z,100330.16
2022-08-17T08:27:41.426Z,100324.17
2022-08-17T08:30:19.598Z,100324.83
2022-08-17T08:32:57.682Z,100329.29
2022-08-17T08:39:09.344Z,100330.70
2022-08-17T08:46:07.084Z,100320.36
2022-08-17T08:49:12.070Z,100320.92
2022-08-17T08:51:58.067Z,100331.60
2022-08-17T08:54:48.935Z,100330.52
2022-08-17T08:57:41.727Z,100325.45
2022-08-17T09:00:20.799Z,100328.33
2022-08-17T09:15:29.117Z,100334.52
2022-08-17T09:19:00.247Z,100331.81
2022-08-17T09:21:18.084Z,100336.16
2022-08-17T09:24:26.623Z,100344.10
2022-08-17T09:27:19.068Z,100345.00
2022-08-17T09:30:01.048Z,100347.79
2022-08-17T09:32:42.976Z,100351.66
2022-08-17T09:35:37.470Z,100351.23
2022-08-17T09:38:15.191Z,100350.38
2022-08-17T09:41:16.401Z,100355.46
2022-08-17T09:44:27.149Z,100351.73
2022-08-17T09:47:10.668Z,100354.08
2022-08-17T09:50:08.978Z,100350.61
2022-08-17T09:52:38.137Z,100355.98
2022-08-17T09:55:07.311Z,100356.96
2022-08-17T09:57:49.500Z,100358.54
2022-08-17T10:00:32.800Z,100359.33
2022-08-17T10:03:28.485Z,100356.40
2022-08-17T10:06:06.575Z,100353.50
2022-08-17T10:09:13.497Z,100347.99
2022-08-17T10:12:16.730Z,100344.49
2022-08-17T10:15:11.523Z,100340.35
2022-08-17T10:17:56.634Z,100338.92
2022-08-17T10:20:45.474Z,100336.61
2022-08-17T10:23:45.207Z,100338.30
2022-08-17T10:26:27.279Z,100335.07
2022-08-17T10:29:20.400Z,100330.37
2022-08-17T10:32:05.004Z,100328.16
2022-08-17T10:35:04.366Z,100322.83
2022-08-17T10:37:56.909Z,100314.87
2022-08-17T10:40:37.226Z,100323.42
2022-08-17T10:43:36.542Z,100321.17
2022-08-17T10:46:52.554Z,100314.60
2022-08-17T10:49:21.529Z,100317.79
2022-08-17T10:51:57.244Z,100316.41
2022-08-17T10:54:25.748Z,100312.84
2022-08-17T10:56:57.082Z,100314.55
2022-08-17T10:59:37.732Z,100310.45
2022-08-17T11:02:39.222Z,100312.08
2022-08-17T11:05:46.836Z,100305.19
2022-08-17T11:09:01.165Z,100305.51
2022-08-17T11:12:07.472Z,100302.46
2022-08-17T11:14:48.907Z,100304.88
2022-08-17T11:17:35.506Z,100299.47
2022-08-17T11:24:34.730Z,100298.80
2022-08-17T11:27:05.985Z,100302.48
2022-08-17T11:30:01.853Z,100295.09
2022-08-17T11:32:48.682Z,100299.58
2022-08-17T11:35:21.798Z,100299.16
2022-08-17T11:38:03.370Z,100307.74
2022-08-17T11:40:38.817Z,100299.64
2022-08-17T11:43:43.700Z,100310.06
2022-08-17T11:47:17.090Z,100312.23
2022-08-17T11:50:36.716Z,100311.66
2022-08-17T11:53:06.659Z,100302.90
2022-08-17T11:55:39.407Z,100300.84
2022-08-17T11:58:44.712Z,100301.66
2022-08-17T12:01:22.857Z,100301.28
2022-08-17T12:03:58.053Z,100298.69
2022-08-17T12:06:51.123Z,100297.41
2022-08-17T12:11:02.073Z,100293.95
2022-08-17T12:19:50.985Z,100292.55
2022-08-17T12:24:27.752Z,100287.76
2022-08-17T12:27:46.204Z,100277.83
2022-08-17T12:30:32.879Z,100287.35
2022-08-17T12:33:01.598Z,100285.50
2022-08-17T12:35:36.831Z,100286.02
2022-08-17T12:44:04.080Z,100285.08
2022-08-17T12:55:41.028Z,100287.72
2022-08-17T12:58:14.711Z,100292.92
2022-08-17T13:01:17.418Z,100294.95
2022-08-17T13:14:11.678Z,100287.04
2022-08-17T13:16:40.345Z,100293.41
2022-08-17T13:19:15.459Z,100289.24
2022-08-17T13:22:04.120Z,100283.83
2022-08-17T13:24:53.322Z,100284.98
2022-08-17T13:27:26.022Z,100290.37
2022-08-17T13:30:00.320Z,100282.98
2022-08-17T13:32:48.279Z,100283.36
2022-08-17T13:35:45.884Z,100285.36
2022-08-17T13:38:49.763Z,100284.09
2022-08-17T13:41:38.094Z,100275.95
2022-08-17T13:44:37.137Z,100274.16
2022-08-17T13:47:27.142Z,100272.39
2022-08-17T13:49:56.346Z,100262.41
2022-08-17T13:52:39.483Z,100253.98
2022-08-17T13:55:32.282Z,100258.49
2022-08-17T13:58:06.758Z,100254.51
2022-08-17T14:00:36.977Z,100258.17
2022-08-17T14:03:06.006Z,100255.02
2022-08-17T14:05:37.425Z,100253.25
2022-08-17T14:08:07.326Z,100251.64
2022-08-17T14:10:36.849Z,100248.09
2022-08-17T14:13:07.300Z,100244.84
2022-08-17T14:15:55.725Z,100248.84
2022-08-17T14:18:55.563Z,100248.41
2022-08-17T14:21:14.085Z,100248.09
2022-08-17T14:23:49.955Z,100252.67
2022-08-17T14:26:26.834Z,100251.23
2022-08-17T14:28:56.226Z,100253.39
2022-08-17T14:33:34.175Z,100256.84
2022-08-17T14:36:03.356Z,100265.80
2022-08-17T14:38:32.715Z,100268.81
2022-08-17T14:41:02.531Z,100262.80
2022-08-17T14:43:35.516Z,100260.27
2022-08-17T14:46:04.329Z,100267.45
2022-08-17T14:48:35.186Z,100270.73
2022-08-17T14:51:05.148Z,100276.05
2022-08-17T14:53:43.407Z,100279.09
2022-08-17T14:56:13.581Z,100277.14
2022-08-17T14:58:42.789Z,100276.05
2022-08-17T15:01:13.561Z,100281.46
2022-08-17T15:03:42.976Z,100287.73
2022-08-17T15:06:14.909Z,100288.64
2022-08-17T15:08:45.151Z,100293.64
2022-08-17T15:11:14.959Z,100302.41
2022-08-17T15:13:52.480Z,100302.69
2022-08-17T15:16:23.514Z,100308.14
2022-08-17T15:18:52.974Z,100304.58
2022-08-17T15:21:22.876Z,100308.64
2022-08-17T15:23:51.619Z,100305.23
2022-08-17T15:26:25.635Z,100305.69
2022-08-17T15:28:56.347Z,100303.28
2022-08-17T15:31:31.901Z,100299.16
2022-08-17T15:34:01.324Z,100294.09
2022-08-17T15:36:32.337Z,100299.69
2022-08-17T15:39:01.057Z,100300.18
2022-08-17T15:41:29.834Z,100299.56
2022-08-17T15:43:58.551Z,100307.39
2022-08-17T15:46:27.599Z,100310.70
2022-08-17T15:48:59.461Z,100307.35
2022-08-17T15:51:32.057Z,100305.57
2022-08-17T15:54:19.046Z,100313.95
2022-08-17T15:56:51.550Z,100339.32
2022-08-17T15:59:20.387Z,100348.10
2022-08-17T16:03:13.445Z,100351.58
2022-08-17T16:04:40.339Z,100362.45
2022-08-17T16:07:12.969Z,100367.09
2022-08-17T16:09:42.230Z,100374.90
2022-08-17T16:12:21.417Z,100389.73
2022-08-17T16:14:51.988Z,100380.05
2022-08-17T16:17:38.838Z,100384.80
2022-08-17T16:20:20.472Z,100375.60
2022-08-17T16:22:51.217Z,100379.44
2022-08-17T16:25:38.865Z,100384.56
2022-08-17T16:28:18.916Z,100391.08
2022-08-17T16:30:47.625Z,100393.21
2022-08-17T16:33:16.988Z,100390.77
2022-08-17T16:35:45.607Z,100393.04
2022-08-17T16:38:14.320Z,100394.77
2022-08-17T16:40:42.959Z,100392.52
2022-08-17T16:43:12.467Z,100393.51
2022-08-17T16:45:42.631Z,100393.66
2022-08-17T16:48:12.264Z,100394.23
2022-08-17T16:50:41.039Z,100398.75
2022-08-17T16:53:17.394Z,100403.73
2022-08-17T16:55:48.995Z,100408.48
2022-08-17T16:58:18.121Z,100407.00
2022-08-17T17:00:48.946Z,100409.80
2022-08-17T17:03:25.122Z,100414.37
2022-08-17T17:05:59.920Z,100415.33
2022-08-17T17:08:46.947Z,100413.73
2022-08-17T17:11:44.406Z,100412.26
2022-08-17T17:14:43.301Z,100411.46
2022-08-17T17:17:24.327Z,100405.73
2022-08-17T17:20:22.971Z,100406.60
2022-08-17T17:23:23.216Z,100409.91
2022-08-17T17:26:25.015Z,100409.11
2022-08-17T17:29:09.330Z,100408.57
2022-08-17T17:31:51.457Z,100413.06
2022-08-17T17:34:21.225Z,100412.29
2022-08-17T17:36:58.537Z,100411.56
2022-08-17T17:39:46.232Z,100405.70
2022-08-17T17:42:22.075Z,100409.88
2022-08-17T17:45:26.277Z,100413.45
2022-08-17T17:47:55.005Z,100412.95
2022-08-17T17:50:38.377Z,100415.77
2022-08-17T17:53:26.097Z,100419.36
2022-08-17T17:56:40.522Z,100430.13
2022-08-17T17:59:27.945Z,100428.41
2022-08-17T18:02:51.967Z,100428.36
2022-08-17T18:05:51.660Z,100434.08
2022-08-17T18:08:38.267Z,100441.96
2022-08-17T18:11:37.944Z,100440.60
2022-08-17T18:14:45.959Z,100435.02
2022-08-17T18:17:14.942Z,100435.97
2022-08-17T18:19:43.540Z,100431.77
2022-08-17T18:22:31.567Z,100429.98
2022-08-17T18:25:00.176Z,100428.35
2022-08-17T18:27:39.283Z,100428.17
2022-08-17T18:30:14.097Z,100435.56
2022-08-17T18:32:46.688Z,100440.08
2022-08-17T18:35:15.242Z,100443.34
2022-08-17T18:37:54.119Z,100439.52
2022-08-17T18:40:33.563Z,100438.15
2022-08-17T18:43:44.495Z,100436.20
2022-08-17T18:46:29.714Z,100434.55
2022-08-17T18:49:08.819Z,100436.23
2022-08-17T18:51:43.169Z,100432.43
2022-08-17T18:54:22.013Z,100430.64
2022-08-17T18:56:59.397Z,100427.27
2022-08-17T18:59:29.977Z,100426.23
2022-08-17T19:01:59.343Z,100422.91
2022-08-17T19:04:59.248Z,100423.16
2022-08-17T19:07:38.349Z,100422.29
2022-08-17T19:10:29.060Z,100419.40
2022-08-17T19:13:23.921Z,100420.08
2022-08-17T19:16:11.576Z,100419.63
2022-08-17T19:18:56.945Z,100427.77
2022-08-17T19:21:45.921Z,100427.58
2022-08-17T19:24:23.147Z,100423.09
2022-08-17T19:27:25.223Z,100423.05
2022-08-17T19:30:12.471Z,100423.48
2022-08-17T19:32:41.162Z,100430.22
2022-08-17T19:35:17.166Z,100430.64
2022-08-17T19:38:13.252Z,100431.98
2022-08-17T19:41:37.473Z,100438.40
2022-08-17T19:44:23.296Z,100435.54
2022-08-17T19:47:43.787Z,100431.70
2022-08-17T19:50:50.090Z,100428.69
2022-08-17T19:54:04.473Z,100429.11
2022-08-17T19:56:56.927Z,100425.79
2022-08-17T20:00:02.510Z,100430.23
2022-08-17T20:03:26.919Z,100434.73
2022-08-17T20:07:19.549Z,100440.87
2022-08-17T20:27:54.821Z,100447.66
2022-08-17T20:30:56.505Z,100450.79
2022-08-17T20:33:37.061Z,100451.94
2022-08-17T20:36:20.548Z,100454.18
2022-08-17T20:39:40.357Z,100449.57
2022-08-17T20:46:11.930Z,100455.22
2022-08-17T20:49:55.728Z,100456.55
2022-08-17T20:52:55.289Z,100461.27
2022-08-17T20:55:51.671Z,100462.04
2022-08-17T20:58:31.129Z,100456.56
2022-08-17T21:01:34.833Z,100459.29
2022-08-17T21:04:09.283Z,100462.14
2022-08-17T21:10:37.753Z,100469.73
2022-08-17T21:13:13.803Z,100467.39
2022-08-17T21:15:56.970Z,100467.63
2022-08-17T21:18:39.232Z,100470.83
2022-08-17T21:21:47.438Z,100467.34
2022-08-17T21:24:47.912Z,100470.69
2022-08-17T21:27:55.349Z,100464.91
2022-08-17T21:30:28.642Z,100466.46
2022-08-17T21:33:25.289Z,100465.38
2022-08-17T21:35:59.575Z,100467.77
2022-08-17T21:38:49.117Z,100463.45
2022-08-17T21:41:29.133Z,100463.67
2022-08-17T21:44:18.945Z,100463.75
2022-08-17T21:46:50.832Z,100463.42
2022-08-17T21:49:27.409Z,100459.27
2022-08-17T21:51:59.234Z,100465.08
2022-08-17T21:54:34.891Z,100466.57
2022-08-17T21:57:16.279Z,100470.66
2022-08-17T21:59:45.281Z,100471.77
2022-08-17T22:02:43.758Z,100472.09
2022-08-17T22:05:15.504Z,100477.14
2022-08-17T22:08:21.824Z,100464.38
2022-08-17T22:11:04.477Z,100472.75
2022-08-17T22:13:38.822Z,100473.85
2022-08-17T22:16:29.049Z,100475.94
2022-08-17T22:19:05.266Z,100470.86
2022-08-17T22:21:34.139Z,100473.42
2022-08-17T22:24:18.227Z,100472.16
2022-08-17T22:27:11.797Z,100471.89
2022-08-17T22:30:22.466Z,100470.23
2022-08-17T22:32:51.636Z,100466.23
2022-08-17T22:35:43.701Z,100463.84
2022-08-17T22:38:21.420Z,100464.93
2022-08-17T22:40:58.143Z,100461.34
2022-08-17T22:43:31.839Z,100458.70
2022-08-17T22:46:09.249Z,100459.92
2022-08-17T22:48:46.799Z,100458.80
2022-08-17T22:51:23.551Z,100455.25
2022-08-17T22:54:18.770Z,100457.29
2022-08-17T22:57:19.960Z,100464.66
2022-08-17T22:59:55.394Z,100460.40
2022-08-17T23:02:28.970Z,100462.15
2022-08-17T23:05:10.421Z,100459.48
2022-08-17T23:07:45.170Z,100464.11
2022-08-17T23:10:15.883Z,100453.07
2022-08-17T23:12:44.619Z,100457.27
2022-08-17T23:15:24.273Z,100455.35
2022-08-17T23:17:55.817Z,100460.52
2022-08-17T23:20:24.627Z,100460.27
2022-08-17T23:22:53.660Z,100458.23
2022-08-17T23:25:28.486Z,100456.71
2022-08-17T23:28:01.756Z,100460.34
2022-08-17T23:30:44.249Z,100457.92
2022-08-17T23:33:39.329Z,100467.25
2022-08-17T23:36:15.301Z,100460.75
2022-08-17T23:38:47.105Z,100457.26
2022-08-17T23:41:20.446Z,100457.54
2022-08-17T23:43:53.462Z,100458.66
2022-08-17T23:46:25.323Z,100458.40
2022-08-17T23:48:54.388Z,100459.92
2022-08-17T23:51:28.776Z,100462.99
2022-08-17T23:54:11.823Z,100463.05
2022-08-17T23:56:47.043Z,100464.28
2022-08-17T23:59:18.835Z,100469.78
